createdAt,value
2023-01-20T00:00:17.268Z,11.82
2023-01-20T00:05:24.856Z,10.25
2023-01-20T00:10:30.196Z,11.80
2023-01-20T00:15:35.216Z,11.05
2023-01-20T00:20:42.905Z,10.88
2023-01-20T00:25:47.968Z,10.73
2023-01-20T00:30:52.984Z,10.55
2023-01-20T00:36:00.599Z,9.70
2023-01-20T00:41:05.659Z,9.25
2023-01-20T00:46:11.133Z,7.95
2023-01-20T00:51:18.820Z,8.65
2023-01-20T00:56:23.946Z,8.70
2023-01-20T01:01:29.133Z,10.18
2023-01-20T01:06:36.837Z,8.90
2023-01-20T01:11:41.845Z,10.25
2023-01-20T01:16:47.367Z,10.27
2023-01-20T01:21:55.019Z,9.27
2023-01-20T01:27:00.252Z,8.98
2023-01-20T01:32:05.348Z,10.57
2023-01-20T01:37:12.938Z,8.82
2023-01-20T01:42:20.047Z,7.88
2023-01-20T01:47:25.073Z,9.98
2023-01-20T01:52:32.746Z,9.70
2023-01-20T01:57:38.337Z,9.48
2023-01-20T02:02:44.907Z,9.98
2023-01-20T02:07:52.512Z,10.75
2023-01-20T02:12:58.029Z,11.05
2023-01-20T02:18:16.395Z,8.02
2023-01-20T02:23:38.175Z,11.15
2023-01-20T02:29:04.216Z,10.27
2023-01-20T02:34:16.896Z,10.75
2023-01-20T02:39:27.505Z,12.05
2023-01-20T02:44:37.788Z,10.40
2023-01-20T02:49:49.736Z,10.93
2023-01-20T02:54:57.021Z,11.43
2023-01-20T03:00:10.157Z,11.77
2023-01-20T03:05:20.433Z,10.50
2023-01-20T03:10:28.275Z,10.85
2023-01-20T03:15:38.003Z,12.80
2023-01-20T03:20:45.590Z,13.05
2023-01-20T03:25:52.329Z,14.55
2023-01-20T03:30:58.685Z,12.13
2023-01-20T03:36:06.592Z,13.95
2023-01-20T03:41:19.602Z,12.25
2023-01-20T03:46:30.922Z,13.45
2023-01-20T03:51:43.599Z,13.20
2023-01-20T03:56:54.386Z,13.05
2023-01-20T04:02:00.032Z,13.30
2023-01-20T04:07:09.056Z,12.35
2023-01-20T04:12:14.222Z,10.90
2023-01-20T04:17:19.233Z,12.52
2023-01-20T04:22:30.344Z,12.63
2023-01-20T04:27:35.350Z,11.93
2023-01-20T04:32:40.420Z,12.45
2023-01-20T04:37:48.253Z,11.13
2023-01-20T04:42:53.493Z,13.73
2023-01-20T04:47:58.660Z,12.15
2023-01-20T04:53:06.345Z,12.88
2023-01-20T04:58:12.608Z,10.18
2023-01-20T05:03:17.701Z,11.10
2023-01-20T05:08:25.491Z,12.00
2023-01-20T05:13:30.721Z,11.85
2023-01-20T05:18:35.949Z,11.73
2023-01-20T05:23:43.618Z,14.57
2023-01-20T05:28:49.536Z,14.18
2023-01-20T05:33:54.685Z,13.43
2023-01-20T05:39:02.459Z,9.90
2023-01-20T05:44:07.838Z,16.27
2023-01-20T05:49:14.451Z,11.57
2023-01-20T05:54:22.610Z,14.60
2023-01-20T05:59:28.206Z,13.15
2023-01-20T06:04:33.254Z,14.52
2023-01-20T06:09:40.938Z,15.05
2023-01-20T06:14:49.685Z,13.32
2023-01-20T06:19:54.941Z,12.40
2023-01-20T06:25:02.727Z,12.45
2023-01-20T06:30:08.409Z,12.00
2023-01-20T06:35:13.718Z,10.80
2023-01-20T06:40:22.191Z,11.68
2023-01-20T06:45:27.466Z,11.68
2023-01-20T06:50:33.181Z,14.10
2023-01-20T06:55:41.075Z,12.75
2023-01-20T07:00:46.381Z,12.40
2023-01-20T07:05:57.952Z,13.90
2023-01-20T07:11:08.895Z,14.57
2023-01-20T07:16:16.438Z,12.98
2023-01-20T07:21:25.280Z,20.15
2023-01-20T07:26:36.202Z,18.77
2023-01-20T07:31:43.257Z,16.05
2023-01-20T07:43:20.681Z,14.98
2023-01-20T07:53:57.056Z,14.55
2023-01-20T07:59:43.621Z,14.88
2023-01-20T08:28:48.836Z,13.48
2023-01-20T08:34:12.895Z,15.57
2023-01-20T08:39:23.440Z,16.52
2023-01-20T08:44:33.525Z,17.50
2023-01-20T08:49:38.906Z,16.67
2023-01-20T08:54:47.211Z,16.58
2023-01-20T08:59:53.107Z,18.40
2023-01-20T09:04:58.992Z,18.42
2023-01-20T09:10:08.535Z,19.60
2023-01-20T09:15:19.442Z,15.70
2023-01-20T09:20:26.684Z,16.95
2023-01-20T09:25:35.285Z,20.45
2023-01-20T09:30:43.090Z,17.55
2023-01-20T09:35:49.106Z,16.35
2023-01-20T09:41:20.741Z,19.20
2023-01-20T09:46:37.170Z,19.42
2023-01-20T09:52:01.621Z,21.13
2023-01-20T09:57:13.062Z,20.45
2023-01-20T10:02:25.507Z,17.20
2023-01-20T10:07:40.987Z,17.70
2023-01-20T10:12:51.855Z,17.52
2023-01-20T10:18:00.753Z,17.88
2023-01-20T10:23:13.105Z,15.43
2023-01-20T10:28:31.104Z,18.70
2023-01-20T10:33:41.271Z,17.08
2023-01-20T10:38:53.570Z,18.48
2023-01-20T10:44:05.162Z,18.73
2023-01-20T10:49:36.184Z,18.25
2023-01-20T10:54:47.126Z,17.30
2023-01-20T10:59:58.215Z,15.05
2023-01-20T11:05:07.509Z,14.77
2023-01-20T11:10:18.979Z,15.93
2023-01-20T11:15:53.324Z,15.88
2023-01-20T11:21:02.591Z,16.15
2023-01-20T11:26:16.803Z,15.75
2023-01-20T11:31:26.623Z,13.93
2023-01-20T11:36:39.001Z,11.30
2023-01-20T11:41:46.241Z,14.00
2023-01-20T11:46:59.410Z,14.35
2023-01-20T11:52:27.369Z,14.68
2023-01-20T11:57:34.301Z,14.60
2023-01-20T12:02:43.085Z,14.98
2023-01-20T12:07:51.139Z,13.93
2023-01-20T12:13:00.245Z,15.07
2023-01-20T12:18:12.328Z,16.17
2023-01-20T12:23:23.428Z,16.05
2023-01-20T12:28:38.475Z,18.15
2023-01-20T12:33:50.320Z,17.08
2023-01-20T12:39:07.461Z,16.00
2023-01-20T12:44:21.161Z,14.40
2023-01-20T12:49:41.806Z,16.35
2023-01-20T12:55:15.118Z,12.68
2023-01-20T13:00:56.406Z,14.98
2023-01-20T13:06:43.444Z,13.55
2023-01-20T13:12:09.484Z,13.82
2023-01-20T13:17:20.641Z,16.60
2023-01-20T13:22:30.290Z,12.65
2023-01-20T13:27:41.324Z,17.67
2023-01-20T13:33:05.979Z,17.52
2023-01-20T13:56:25.124Z,17.65
2023-01-20T14:01:32.716Z,15.23
2023-01-20T14:13:35.404Z,14.13
2023-01-20T14:19:29.124Z,14.50
2023-01-20T14:24:37.784Z,13.50
2023-01-20T14:30:13.083Z,12.05
2023-01-20T14:41:35.762Z,11.23
2023-01-20T14:47:03.969Z,12.68
2023-01-20T14:52:37.682Z,12.88
2023-01-20T14:59:06.890Z,13.05
2023-01-20T15:04:17.144Z,12.52
2023-01-20T15:09:40.661Z,13.40
2023-01-20T15:15:25.747Z,12.65
2023-01-20T15:21:00.955Z,14.82
2023-01-20T15:27:11.279Z,15.73
2023-01-20T15:32:57.428Z,13.77
2023-01-20T15:50:31.911Z,11.88
2023-01-20T15:56:57.445Z,15.75
2023-01-20T16:08:37.918Z,12.48
2023-01-20T16:13:59.005Z,13.73
2023-01-20T16:20:12.471Z,13.38
2023-01-20T16:25:26.088Z,12.93
2023-01-20T16:30:36.146Z,14.27
2023-01-20T16:35:55.356Z,14.40
2023-01-20T16:41:30.908Z,13.90
2023-01-20T16:46:37.284Z,16.17
2023-01-20T16:51:43.426Z,15.68
2023-01-20T16:56:55.117Z,12.35
2023-01-20T17:02:01.207Z,13.52
2023-01-20T17:07:10.996Z,14.27
2023-01-20T17:12:19.741Z,14.07
2023-01-20T17:17:28.355Z,15.60
2023-01-20T17:22:34.443Z,14.68
2023-01-20T17:27:43.354Z,15.30
2023-01-20T17:32:52.804Z,14.45
2023-01-20T17:37:58.730Z,14.25
2023-01-20T17:43:07.321Z,14.95
2023-01-20T17:48:13.423Z,14.98
2023-01-20T17:53:19.949Z,14.00
2023-01-20T17:58:38.051Z,14.50
2023-01-20T18:03:52.346Z,14.60
2023-01-20T18:09:04.415Z,14.20
2023-01-20T18:14:18.799Z,16.42
2023-01-20T18:19:30.049Z,16.15
2023-01-20T18:24:36.085Z,14.57
2023-01-20T18:29:45.565Z,15.43
2023-01-20T18:34:51.437Z,16.77
2023-01-20T18:40:01.486Z,15.32
2023-01-20T18:45:13.298Z,17.67
2023-01-20T18:50:20.707Z,16.42
2023-01-20T18:55:26.635Z,16.35
2023-01-20T19:00:38.682Z,16.65
2023-01-20T19:05:46.682Z,16.20
2023-01-20T19:10:52.642Z,14.77
2023-01-20T19:16:02.627Z,16.45
2023-01-20T19:21:10.569Z,15.02
2023-01-20T19:26:19.696Z,16.42
2023-01-20T19:31:28.755Z,16.75
2023-01-20T19:36:35.424Z,15.40
2023-01-20T19:42:00.926Z,17.35
2023-01-20T19:48:05.348Z,15.52
2023-01-20T20:00:08.975Z,15.65
2023-01-20T20:05:15.418Z,16.92
2023-01-20T20:33:09.016Z,14.75
2023-01-20T20:38:16.503Z,14.13
2023-01-20T20:43:25.887Z,16.35
2023-01-20T20:48:35.345Z,15.73
2023-01-20T20:53:41.312Z,15.50
2023-01-20T20:59:00.375Z,15.30
2023-01-20T21:04:10.608Z,15.05
2023-01-20T21:09:16.557Z,15.77
2023-01-20T21:14:26.388Z,19.45
2023-01-20T21:19:35.007Z,15.32
2023-01-20T21:24:40.821Z,15.98
2023-01-20T21:29:47.524Z,16.70
2023-01-20T21:34:57.532Z,16.17
2023-01-20T21:40:04.615Z,17.25
2023-01-20T21:45:20.467Z,16.70
2023-01-20T21:50:53.665Z,15.93
2023-01-20T21:56:00.059Z,17.65
2023-01-20T22:01:06.179Z,18.20
2023-01-20T22:06:15.170Z,15.93
2023-01-20T22:11:21.104Z,17.13
2023-01-20T22:16:28.454Z,17.88
2023-01-20T22:21:37.104Z,17.15
2023-01-20T22:26:43.133Z,16.85
2023-01-20T22:31:51.274Z,18.65
2023-01-20T22:37:02.571Z,14.85
2023-01-20T22:42:09.079Z,15.88
2023-01-20T22:47:15.524Z,17.40
2023-01-20T22:52:24.036Z,15.95
2023-01-20T22:57:30.343Z,15.50
2023-01-20T23:02:36.250Z,14.55
2023-01-20T23:07:45.302Z,14.25
2023-01-20T23:12:51.151Z,14.85
2023-01-20T23:17:57.256Z,14.63
2023-01-20T23:23:07.552Z,14.98
2023-01-20T23:28:13.057Z,14.85
2023-01-20T23:33:19.021Z,14.45
2023-01-20T23:38:26.937Z,14.75
2023-01-20T23:43:32.395Z,15.18
2023-01-20T23:48:38.841Z,14.18
2023-01-20T23:53:46.959Z,14.10
2023-01-20T23:58:52.270Z,15.50
